KTTN/TTN METAR and TAF weather

Enter ICAO airport designator
Station Type Date Time Source
KTTN METAR 2020/07/06 20:53 UTC NOAA

KTTN 062053Z 17007KT 10SM FEW031 23/18 A3004 RMK AO2 LTG DSNT SW SLP167 60000 T02330178 50006


Station Type Date Time Source
KTTN Decoded METAR 2020/07/06 20:53 UTC NOAA

TRENTON MERCER COUNTY AIRPORT , NJ, United States (KTTN) 40-17N 074-49W 59M
Jul 06, 2020 - 04:53 PM EDT / 2020.07.06 2053 UTC
Wind: from the S (170 degrees) at 8 MPH (7 KT):0
Visibility: 10 mile(s):0
Sky conditions: mostly clear
Weather: Lightning observed
Temperature: 73.9 F (23.3 C)
Dew Point: 64.0 F (17.8 C)
Relative Humidity: 71%
Pressure (altimeter): 30.04 in. Hg (1017 hPa)
Pressure tendency: 0.02 inches (0.6 hPa) higher than three hours ago
ob: KTTN 062053Z 17007KT 10SM FEW031 23/18 A3004 RMK AO2 LTG DSNT SW SLP167 60000 T02330178 50006
cycle: 21

Station Type Date Time Source
KTTN TAF 2020/07/06 21:48 UTC NOAA

TAF
AMD KTTN 062046Z 0621/0718 12012KT 6SM -SHRA SCT025 BKN100
TEMPO 0621/0623 4SM SHRA BKN025 OVC040
FM062300 13006KT P6SM BKN040 BKN150
FM070200 VRB03KT P6SM SCT080
FM070700 VRB02KT 4SM BR SCT012
FM071300 18005KT P6SM SCT200

Example: see airport list